Time;durP1;ratioP1;P1;durP2;ratioP2;P2;SDS_P1;SDS_P2;PMS_P1;PMS_P2;Temp;Humidity;BMP_temperature;BMP_pressure;BME280_temperature;BME280_humidity;BME280_pressure;Samples;Min_cycle;Max_cycle;Signal;HPM_P1;HPM_P2
2022/07/21 00:00:32;;;;;;;33.97;20.27;;;;;;;28.39;80.60;100876.09;4960852;28;71853;-33
2022/07/21 00:03:04;;;;;;;40.17;21.10;;;;;;;28.45;81.53;100894.19;4957612;28;65711;-32
2022/07/21 00:05:35;;;;;;;32.58;20.73;;;;;;;28.32;81.84;100866.31;4957222;28;69663;-33
2022/07/21 00:08:06;;;;;;;39.75;28.98;;;;;;;28.47;81.40;100892.13;4951687;28;65434;-32
2022/07/21 00:10:37;;;;;;;35.15;23.85;;;;;;;28.47;82.37;100894.84;4960017;28;69414;-32
2022/07/21 00:13:08;;;;;;;34.50;21.60;;;;;;;28.51;79.29;100893.38;4960636;28;66217;-34
2022/07/21 00:15:39;;;;;;;24.88;19.23;;;;;;;28.59;77.98;100892.34;4959463;28;70250;-34
2022/07/21 00:18:10;;;;;;;23.50;18.02;;;;;;;28.59;76.44;100884.25;4959016;28;66043;-34
2022/07/21 00:20:41;;;;;;;18.50;16.53;;;;;;;28.72;76.61;100896.94;4959084;28;70285;-33
2022/07/21 00:23:12;;;;;;;25.02;17.23;;;;;;;28.73;75.57;100890.53;4958736;28;66958;-33
2022/07/21 00:25:43;;;;;;;23.42;16.33;;;;;;;28.89;75.75;100897.38;4956376;28;69466;-34
2022/07/21 00:28:14;;;;;;;31.38;16.88;;;;;;;28.93;75.70;100895.94;4958379;28;65260;-36
2022/07/21 00:30:46;;;;;;;22.73;15.07;;;;;;;29.02;75.86;100894.69;4956770;28;69670;-35
2022/07/21 00:33:17;;;;;;;15.88;14.27;;;;;;;29.04;76.45;100898.03;4959848;28;66201;-36
2022/07/21 00:35:48;;;;;;;16.95;14.07;;;;;;;29.11;74.91;100892.63;4956599;28;69203;-35
2022/07/21 00:38:20;;;;;;;24.57;14.07;;;;;;;29.09;74.05;100889.31;5023739;28;66209;-34
2022/07/21 00:40:51;;;;;;;14.60;13.23;;;;;;;29.22;74.48;100900.09;5023775;28;70763;-35
2022/07/21 00:43:22;;;;;;;17.23;13.02;;;;;;;29.24;73.85;100898.03;5023241;28;65700;-35
2022/07/21 00:45:54;;;;;;;15.80;12.80;;;;;;;29.02;73.54;100853.34;4950101;28;70617;-34
2022/07/21 00:48:25;;;;;;;20.70;12.63;;;;;;;29.24;74.16;100898.03;4960521;28;65506;-35
2022/07/21 00:50:56;;;;;;;16.95;13.35;;;;;;;29.33;73.47;100896.78;4957552;28;71327;-35
2022/07/21 00:53:27;;;;;;;14.40;12.98;;;;;;;29.35;73.45;100904.69;4957962;28;66223;-36
2022/07/21 00:56:00;;;;;;;15.85;13.77;;;;;;;29.37;73.28;100902.59;4958118;28;70403;-34
2022/07/21 00:58:31;;;;;;;14.63;12.00;;;;;;;29.32;72.86;100895.13;4946204;28;67010;-35
2022/07/21 01:01:02;;;;;;;14.00;12.52;;;;;;;29.40;72.76;100903.00;4958896;28;69728;-36
2022/07/21 01:03:33;;;;;;;14.93;11.60;;;;;;;29.42;72.63;100907.38;4957626;28;63799;-35
2022/07/21 01:06:04;;;;;;;18.73;12.20;;;;;;;29.40;72.34;100903.00;4958846;28;71167;-35
2022/07/21 01:08:35;;;;;;;14.93;12.85;;;;;;;29.32;71.95;100884.31;4958695;28;65561;-35
2022/07/21 01:11:06;;;;;;;13.90;11.50;;;;;;;29.26;72.01;100868.94;5018389;28;70190;-34
2022/07/21 01:13:41;;;;;;;13.25;11.88;;;;;;;29.47;71.93;100902.16;4940633;28;66405;-35
2022/07/21 01:16:12;;;;;;;16.40;11.98;;;;;;;29.50;71.88;100902.56;4955453;28;70371;-35
2022/07/21 01:18:44;;;;;;;13.30;11.20;;;;;;;29.52;72.00;100913.19;4958561;28;66181;-35
2022/07/21 01:21:42;;;;;;;12.05;11.02;;;;;;;29.36;72.28;100903.63;4958804;28;69610;-35
2022/07/21 01:24:14;;;;;;;15.77;11.43;;;;;;;29.54;71.83;100919.22;4953006;28;66552;-34
2022/07/21 01:26:48;;;;;;;11.60;10.60;;;;;;;29.18;71.28;100861.06;4953885;28;70171;-35
2022/07/21 01:29:20;;;;;;;15.85;10.90;;;;;;;29.56;71.41;100917.97;4953719;28;66100;-35
2022/07/21 01:31:52;;;;;;;15.48;11.25;;;;;;;29.60;70.90;100912.97;4959846;28;70569;-35
2022/07/21 01:34:23;;;;;;;12.65;11.07;;;;;;;29.60;70.68;100918.38;4960339;28;67366;-35
2022/07/21 01:36:54;;;;;;;12.98;11.65;;;;;;;29.62;70.68;100927.09;5022069;28;70138;-36
2022/07/21 01:42:14;;;;;;;13.48;10.75;;;;;;;29.64;70.34;100933.13;4956783;28;69331;-35
2022/07/21 01:44:45;;;;;;;13.63;10.30;;;;;;;29.62;70.99;100929.81;4950559;28;65951;-35
2022/07/21 01:47:17;;;;;;;11.20;10.07;;;;;;;29.67;70.84;100940.84;5024330;28;70155;-35
2022/07/21 01:49:48;;;;;;;13.32;10.73;;;;;;;29.68;70.21;100937.09;4958675;28;65876;-35
2022/07/21 01:52:20;;;;;;;15.35;10.43;;;;;;;29.71;70.41;100936.69;4959021;28;69781;-35
2022/07/21 01:54:51;;;;;;;10.38;9.50;;;;;;;29.73;70.45;100945.41;4959539;28;65375;-36
2022/07/21 01:57:22;;;;;;;16.83;10.37;;;;;;;29.75;70.22;100937.91;5023256;28;68811;-36
2022/07/21 01:59:53;;;;;;;10.85;10.05;;;;;;;29.78;69.99;100942.06;4959854;28;66124;-36
2022/07/21 02:02:24;;;;;;;13.38;10.73;;;;;;;29.80;69.31;100934.56;4957788;28;69856;-35
2022/07/21 02:04:55;;;;;;;12.80;10.00;;;;;;;29.82;69.33;100927.91;4945668;28;65830;-35
2022/07/21 02:07:26;;;;;;;11.57;10.27;;;;;;;29.87;69.40;100932.69;4954976;28;69203;-35
2022/07/21 02:09:57;;;;;;;11.40;10.07;;;;;;;29.88;69.46;100930.81;4963432;28;65467;-35
2022/07/21 02:12:28;;;;;;;11.40;9.02;;;;;;;29.90;69.37;100939.56;4964832;28;69942;-35
2022/07/21 02:14:59;;;;;;;9.67;8.70;;;;;;;29.87;69.18;100939.97;4951630;28;65205;-34
2022/07/21 02:17:30;;;;;;;10.63;9.60;;;;;;;29.94;68.92;100938.91;4963770;28;69699;-37
2022/07/21 02:20:01;;;;;;;9.35;8.52;;;;;;;29.98;68.81;100952.84;4956632;28;67558;-36
2022/07/21 02:22:32;;;;;;;10.27;9.25;;;;;;;29.95;69.47;100934.31;4964189;28;70304;-35
2022/07/21 02:25:03;;;;;;;8.82;8.00;;;;;;;30.03;68.78;100945.75;4963174;28;66755;-35
2022/07/21 02:27:34;;;;;;;9.90;8.87;;;;;;;30.04;68.83;100946.59;5029942;28;70146;-35
2022/07/21 02:30:05;;;;;;;10.30;8.85;;;;;;;30.07;69.03;100946.16;4965186;28;66075;-35
2022/07/21 02:32:37;;;;;;;9.90;8.93;;;;;;;30.10;68.95;100944.91;4963964;28;70130;-35
2022/07/21 02:35:08;;;;;;;9.07;8.32;;;;;;;30.11;68.22;100936.56;4960549;28;65080;-36
2022/07/21 02:37:39;;;;;;;10.60;8.60;;;;;;;30.14;68.65;100940.72;4964795;28;70524;-35
2022/07/21 02:40:10;;;;;;;9.70;8.80;;;;;;;30.10;68.35;100928.66;4964710;28;66436;-36
2022/07/21 02:42:41;;;;;;;8.82;8.05;;;;;;;30.20;68.36;100934.44;4956413;28;71033;-35
2022/07/21 02:45:12;;;;;;;8.85;7.95;;;;;;;30.21;68.60;100926.13;4961469;28;65538;-37
2022/07/21 02:47:54;;;;;;;9.73;7.95;;;;;;;29.91;68.02;100870.88;4963695;28;70092;-35
2022/07/21 02:50:27;;;;;;;8.05;7.35;;;;;;;30.00;67.94;100872.31;4962551;28;66128;-35
2022/07/21 02:53:17;;;;;;;8.07;7.50;;;;;;;30.33;68.00;100911.94;4958176;28;68884;-36
2022/07/21 02:55:50;;;;;;;8.40;7.63;;;;;;;30.35;68.11;100899.03;4965739;28;65664;-35
2022/07/21 02:58:27;;;;;;;8.35;7.55;;;;;;;30.04;67.37;100841.09;4963807;28;70019;-36
2022/07/21 03:01:01;;;;;;;8.00;7.40;;;;;;;30.43;67.31;100896.06;4961057;28;66229;-35
2022/07/21 03:03:35;;;;;;;8.20;7.60;;;;;;;30.19;67.77;100851.63;4957426;28;70144;-35
2022/07/21 03:06:06;;;;;;;10.75;7.22;;;;;;;30.47;67.45;100895.41;4959908;28;66550;-35
2022/07/21 03:08:38;;;;;;;12.25;7.53;;;;;;;30.50;67.76;100891.44;4963132;28;68785;-35
2022/07/21 03:11:08;;;;;;;11.27;7.70;;;;;;;30.52;67.54;100897.47;4964142;28;65165;-35
2022/07/21 03:13:39;;;;;;;7.15;6.60;;;;;;;30.57;67.20;100894.13;4953116;28;70265;-35
2022/07/21 03:16:10;;;;;;;8.20;7.53;;;;;;;30.58;67.30;100893.06;4962780;28;66028;-35
2022/07/21 03:18:42;;;;;;;7.68;6.90;;;;;;;30.62;67.54;100897.84;4959710;28;69937;-35
2022/07/21 03:21:13;;;;;;;7.18;6.55;;;;;;;30.65;67.43;100894.69;4961074;28;66462;-36
2022/07/21 03:23:45;;;;;;;7.30;6.68;;;;;;;30.64;67.33;100887.59;4960325;28;69553;-34
2022/07/21 03:26:17;;;;;;;7.05;6.55;;;;;;;30.70;67.29;100913.81;5021461;28;66361;-34
2022/07/21 03:28:48;;;;;;;6.88;6.38;;;;;;;30.57;67.29;100897.66;4954566;28;70318;-36
2022/07/21 03:31:19;;;;;;;6.82;6.32;;;;;;;30.71;67.14;100909.22;4958447;28;65898;-37
2022/07/21 03:33:50;;;;;;;6.72;6.22;;;;;;;30.73;67.48;100897.13;4956080;28;70127;-35
2022/07/21 03:36:22;;;;;;;7.57;6.75;;;;;;;30.74;67.45;100881.72;4960568;28;65714;-35
2022/07/21 03:38:53;;;;;;;7.80;6.07;;;;;;;30.71;67.65;100866.72;5022363;28;70056;-35
2022/07/21 03:41:24;;;;;;;6.65;5.60;;;;;;;30.38;67.46;100801.16;4951513;28;65779;-35
2022/07/21 03:43:55;;;;;;;7.15;6.50;;;;;;;30.73;67.05;100858.41;4959529;28;69609;-35
2022/07/21 03:46:26;;;;;;;6.38;5.80;;;;;;;30.80;67.02;100869.19;5012907;28;65902;-35
2022/07/21 03:48:57;;;;;;;7.13;5.80;;;;;;;30.77;67.09;100861.47;4955203;28;71550;-35
2022/07/21 03:51:28;;;;;;;6.65;6.05;;;;;;;30.80;66.63;100863.78;4955739;28;65837;-36
2022/07/21 03:54:01;;;;;;;6.22;5.70;;;;;;;30.83;67.07;100874.16;5027566;28;68967;-35
2022/07/21 03:56:32;;;;;;;5.75;5.25;;;;;;;30.83;66.88;100874.16;5023674;28;66078;-35
2022/07/21 03:59:03;;;;;;;7.53;6.35;;;;;;;30.83;66.79;100882.28;4948965;28;69968;-35
2022/07/21 04:01:34;;;;;;;6.28;5.47;;;;;;;30.76;66.49;100867.94;4959608;28;65513;-36
2022/07/21 04:04:05;;;;;;;7.03;6.30;;;;;;;30.77;66.73;100880.44;4961607;28;71433;-36
2022/07/21 04:06:36;;;;;;;6.00;5.50;;;;;;;30.76;66.74;100884.19;4958719;28;65217;-35
2022/07/21 04:09:07;;;;;;;5.90;5.38;;;;;;;30.87;66.53;100903.31;4959768;28;70089;-35
2022/07/21 04:11:39;;;;;;;9.65;5.75;;;;;;;30.87;66.12;100919.56;5027051;28;65723;-35
2022/07/21 04:14:10;;;;;;;7.00;5.47;;;;;;;30.62;66.62;100884.28;4958535;28;71218;-35
2022/07/21 04:16:41;;;;;;;5.55;5.15;;;;;;;30.88;66.22;100937.47;4958692;28;66485;-34
2022/07/21 04:19:12;;;;;;;9.25;5.70;;;;;;;30.89;66.47;100943.69;4959641;28;69372;-34
2022/07/21 04:21:43;;;;;;;9.52;5.55;;;;;;;30.86;67.42;100949.56;4958997;28;64828;-34
2022/07/21 04:24:14;;;;;;;5.50;4.97;;;;;;;30.87;67.40;100968.31;4948216;28;69452;-35
2022/07/21 04:26:44;;;;;;;7.38;4.72;;;;;;;30.86;67.80;100968.53;4961400;28;65672;-38
2022/07/21 04:29:15;;;;;;;4.85;4.45;;;;;;;30.85;67.68;100965.00;4959803;28;71061;-35
2022/07/21 04:31:46;;;;;;;6.78;4.75;;;;;;;30.81;67.71;100973.75;4955640;28;66266;-36
2022/07/21 04:34:17;;;;;;;8.35;5.32;;;;;;;30.78;68.06;100975.00;4954236;28;71255;-35
2022/07/21 04:36:48;;;;;;;5.70;4.72;;;;;;;30.77;68.36;100984.16;4959311;28;66093;-36
2022/07/21 04:39:19;;;;;;;5.43;4.90;;;;;;;30.79;68.18;100992.09;4954964;28;70185;-34
2022/07/21 04:41:50;;;;;;;7.05;4.55;;;;;;;30.69;68.44;100982.53;4956816;28;66095;-35
2022/07/21 04:44:21;;;;;;;6.75;4.93;;;;;;;30.73;68.01;100981.06;4959090;28;70063;-35
2022/07/21 04:46:52;;;;;;;4.70;4.30;;;;;;;30.73;68.32;100982.97;4959975;28;65947;-35
2022/07/21 04:49:24;;;;;;;5.28;4.20;;;;;;;30.71;68.12;100969.63;5012301;28;69278;-35
2022/07/21 04:51:55;;;;;;;6.18;4.10;;;;;;;30.68;68.79;100964.63;4960604;28;65216;-36
2022/07/21 04:55:05;;;;;;;6.40;4.20;;;;;;;30.57;69.06;100965.34;5030100;28;69117;-37
2022/07/21 04:58:13;;;;;;;6.15;3.85;;;;;;;30.65;68.54;100966.97;4955110;28;66205;-35
2022/07/21 05:00:44;;;;;;;4.15;3.83;;;;;;;30.66;68.37;100977.56;4972390;28;69526;-35
2022/07/21 05:03:15;;;;;;;4.20;3.80;;;;;;;30.53;68.75;100950.56;4957562;28;66280;-35
2022/07/21 05:05:46;;;;;;;5.15;4.68;;;;;;;30.61;68.83;100963.84;4961296;28;69196;-37
2022/07/21 05:08:17;;;;;;;5.38;4.32;;;;;;;30.60;68.50;100962.19;4962734;28;66490;-35
2022/07/21 05:10:48;;;;;;;4.25;3.88;;;;;;;30.58;68.74;100964.28;5023596;28;70054;-36
2022/07/21 05:13:19;;;;;;;6.10;4.50;;;;;;;30.57;68.54;100975.34;4959410;28;65529;-36
2022/07/21 05:15:50;;;;;;;4.65;3.35;;;;;;;30.57;68.35;100980.75;4996101;28;69840;-37
2022/07/21 05:18:21;;;;;;;4.57;4.10;;;;;;;30.53;68.98;100977.63;4968588;28;65535;-36
2022/07/21 05:20:52;;;;;;;4.28;3.97;;;;;;;30.54;68.82;100973.88;4959776;28;70072;-35
2022/07/21 05:23:23;;;;;;;4.68;4.03;;;;;;;30.51;68.36;100968.91;4957127;28;65678;-36
2022/07/21 05:25:54;;;;;;;5.13;4.63;;;;;;;30.50;68.66;100959.94;4956983;28;69389;-37
2022/07/21 05:28:30;;;;;;;4.85;4.45;;;;;;;30.51;68.90;100949.97;4958622;28;65507;-36
2022/07/21 05:31:01;;;;;;;4.97;4.15;;;;;;;30.41;68.35;100938.75;4957650;28;71233;-35
2022/07/21 05:33:32;;;;;;;5.07;4.30;;;;;;;30.47;68.94;100946.84;4960134;28;66175;-36
2022/07/21 05:36:06;;;;;;;5.70;4.35;;;;;;;30.51;68.41;100941.84;4958062;28;69951;-36
2022/07/21 05:38:38;;;;;;;4.68;4.25;;;;;;;30.49;68.44;100938.50;4974412;28;66029;-35
2022/07/21 05:41:09;;;;;;;5.35;4.13;;;;;;;30.48;68.34;100936.84;4956510;28;70048;-35
2022/07/21 05:43:40;;;;;;;5.93;3.95;;;;;;;30.51;68.23;100933.72;4960525;28;65977;-36
2022/07/21 05:46:11;;;;;;;3.63;3.42;;;;;;;30.51;67.99;100925.59;4963176;28;70673;-35
2022/07/21 05:48:42;;;;;;;3.80;3.50;;;;;;;30.49;67.93;100919.56;4960135;28;65987;-36
2022/07/21 05:51:13;;;;;;;4.05;3.75;;;;;;;30.53;68.18;100928.06;5029523;28;70123;-35
2022/07/21 05:53:47;;;;;;;5.95;4.35;;;;;;;30.54;68.04;100925.16;4955314;28;66810;-34
2022/07/21 05:56:18;;;;;;;7.43;3.40;;;;;;;30.55;68.06;100921.41;4951917;28;69650;-36
2022/07/21 05:58:49;;;;;;;4.30;3.90;;;;;;;30.56;67.72;100916.81;4954776;28;66824;-35
2022/07/21 06:01:21;;;;;;;5.72;4.00;;;;;;;30.54;67.56;100914.34;4955608;28;70772;-35
2022/07/21 06:03:52;;;;;;;4.05;3.75;;;;;;;30.47;67.60;100898.09;4969413;28;67437;-35
2022/07/21 06:06:24;;;;;;;;;;;;;;;30.21;69.02;100909.88;4957428;28;70286;-36
2022/07/21 06:08:55;;;;;;;4.15;3.78;;;;;;;30.49;67.98;100900.63;5024345;28;65600;-36
2022/07/21 06:11:27;;;;;;;3.20;3.00;;;;;;;30.53;67.71;100893.69;4952818;28;69993;-36
2022/07/21 06:14:04;;;;;;;3.75;3.45;;;;;;;30.54;67.69;100887.25;5005247;28;65613;-36
2022/07/21 06:16:36;;;;;;;4.22;3.83;;;;;;;30.51;67.88;100879.56;4950675;28;69174;-36
2022/07/21 06:19:07;;;;;;;3.90;3.60;;;;;;;30.50;67.89;100872.47;4958512;28;66542;-34
2022/07/21 06:21:40;;;;;;;3.80;3.50;;;;;;;30.49;67.79;100862.72;4958214;28;69901;-36
2022/07/21 06:24:15;;;;;;;5.90;3.97;;;;;;;30.53;67.98;100863.09;4959713;28;66317;-35
2022/07/21 06:26:46;;;;;;;4.80;4.25;;;;;;;30.43;68.00;100850.06;4957534;28;70011;-36
2022/07/21 06:29:16;;;;;;;3.58;3.35;;;;;;;30.26;68.02;100822.69;4957786;28;66684;-36
2022/07/21 06:31:47;;;;;;;4.03;3.67;;;;;;;30.50;68.05;100870.59;4958980;28;69886;-37
2022/07/21 06:34:18;;;;;;;3.90;3.60;;;;;;;30.44;67.61;100857.13;4957736;28;65782;-36
2022/07/21 06:36:49;;;;;;;3.95;3.65;;;;;;;30.49;67.63;100868.94;4958833;28;71620;-35
2022/07/21 06:39:20;;;;;;;4.40;4.00;;;;;;;30.48;67.56;100871.91;4957847;28;65993;-35
2022/07/21 06:41:51;;;;;;;3.85;3.55;;;;;;;30.44;67.89;100854.41;4953142;28;69278;-35
2022/07/21 06:44:24;;;;;;;4.80;3.90;;;;;;;30.46;67.96;100865.88;4959139;28;66069;-35
2022/07/21 06:46:56;;;;;;;6.03;4.13;;;;;;;30.27;67.78;100833.28;4959283;28;70501;-34
2022/07/21 06:49:27;;;;;;;4.50;4.10;;;;;;;30.46;67.65;100863.16;4958991;28;66245;-35
2022/07/21 06:51:59;;;;;;;5.18;4.05;;;;;;;30.44;67.80;100862.53;4957220;28;69509;-35
2022/07/21 06:54:30;;;;;;;3.50;3.30;;;;;;;30.43;67.72;100863.59;4971355;28;66122;-35
2022/07/21 06:57:01;;;;;;;5.50;3.63;;;;;;;30.45;67.67;100858.78;4956667;28;70052;-35
2022/07/21 06:59:33;;;;;;;3.70;3.40;;;;;;;30.36;67.77;100851.97;4953406;28;65927;-35
2022/07/21 07:02:04;;;;;;;3.53;3.33;;;;;;;30.38;67.78;100850.72;4952860;28;69127;-35
2022/07/21 07:04:35;;;;;;;4.25;3.95;;;;;;;30.39;68.11;100851.53;5034620;28;68341;-36
2022/07/21 07:07:07;;;;;;;3.97;3.67;;;;;;;30.41;68.25;100855.69;4955362;28;69977;-35
2022/07/21 07:09:38;;;;;;;4.63;4.22;;;;;;;30.39;68.08;100846.13;4969070;28;65045;-34
2022/07/21 07:12:09;;;;;;;6.00;4.00;;;;;;;30.39;68.33;100846.13;4951528;28;69135;-35
2022/07/21 07:15:00;;;;;;;3.63;3.33;;;;;;;30.40;68.07;100843.19;4954331;28;65606;-35
2022/07/21 07:17:30;;;;;;;3.60;3.33;;;;;;;30.41;67.83;100838.63;4950016;28;70489;-35
2022/07/21 07:20:03;;;;;;;4.00;3.70;;;;;;;30.36;68.15;100828.44;4961798;28;66366;-35
2022/07/21 07:22:34;;;;;;;4.03;3.72;;;;;;;30.34;68.06;100813.47;4955935;28;70462;-35
2022/07/21 07:25:06;;;;;;;3.85;3.55;;;;;;;30.28;68.17;100802.50;4960863;28;64949;-36
2022/07/21 07:27:37;;;;;;;4.40;4.00;;;;;;;30.34;68.23;100805.34;4965188;28;69496;-34
2022/07/21 07:30:09;;;;;;;4.20;3.90;;;;;;;30.34;68.54;100791.81;4969178;28;65855;-37
2022/07/21 07:32:41;;;;;;;4.03;3.72;;;;;;;30.35;67.94;100802.44;4961013;28;70174;-36
2022/07/21 07:35:12;;;;;;;4.82;4.13;;;;;;;30.36;68.48;100797.84;4958496;28;66352;-36
2022/07/21 07:37:46;;;;;;;4.07;3.78;;;;;;;30.37;68.48;100794.94;4956963;28;69320;-35
2022/07/21 07:40:19;;;;;;;4.82;4.50;;;;;;;30.11;68.28;100744.47;4971760;28;65630;-36
2022/07/21 07:42:51;;;;;;;4.75;4.43;;;;;;;30.37;68.53;100780.53;4960657;28;69245;-36
2022/07/21 07:45:22;;;;;;;4.83;4.50;;;;;;;30.36;68.35;100782.44;4965370;28;66078;-39
2022/07/21 07:47:53;;;;;;;4.83;4.37;;;;;;;30.35;67.99;100782.66;5027484;28;70089;-36
2022/07/21 07:50:24;;;;;;;4.50;4.20;;;;;;;30.36;68.24;100779.72;4961901;28;66209;-36
2022/07/21 07:52:56;;;;;;;5.63;4.22;;;;;;;30.34;68.11;100779.13;4962988;28;71638;-36
2022/07/21 07:55:26;;;;;;;4.88;4.47;;;;;;;30.37;68.63;100783.25;4964013;28;65694;-35
2022/07/21 07:57:58;;;;;;;6.37;4.37;;;;;;;30.33;68.00;100780.16;4981753;28;69913;-35
2022/07/21 08:00:29;;;;;;;4.40;4.10;;;;;;;30.36;68.20;100781.59;4957925;28;65374;-35
2022/07/21 08:03:21;;;;;;;4.75;4.35;;;;;;;30.36;68.70;100779.72;4959505;28;70070;-35
2022/07/21 08:05:59;;;;;;;5.18;4.40;;;;;;;30.38;68.39;100779.53;4956447;28;43396;-36
2022/07/21 08:08:31;;;;;;;5.68;4.35;;;;;;;30.38;68.25;100782.22;4955887;28;69479;-35
2022/07/21 08:11:02;;;;;;;4.78;4.38;;;;;;;30.37;68.44;100772.44;4958430;28;66363;-34
2022/07/21 08:13:34;;;;;;;5.10;4.60;;;;;;;30.36;68.25;100770.78;5025415;28;70245;-35
2022/07/21 08:16:05;;;;;;;4.63;4.32;;;;;;;30.32;68.51;100753.34;4959541;28;66798;-35
2022/07/21 08:18:36;;;;;;;4.60;4.20;;;;;;;30.17;68.22;100738.22;4960862;28;69809;-32
2022/07/21 08:21:12;;;;;;;6.28;5.47;;;;;;;30.38;68.41;100779.53;4958712;28;66619;-34
2022/07/21 08:23:43;;;;;;;6.38;5.97;;;;;;;30.41;69.44;100779.06;4960624;28;70625;-37
2022/07/21 08:26:14;;;;;;;9.32;6.22;;;;;;;30.38;69.63;100774.09;4960412;28;66185;-35
2022/07/21 08:28:45;;;;;;;8.10;7.28;;;;;;;30.40;70.48;100763.91;4959514;28;70216;-34
2022/07/21 08:31:16;;;;;;;8.77;7.63;;;;;;;30.43;70.57;100761.56;4959477;28;66705;-34
2022/07/21 08:33:47;;;;;;;8.60;7.90;;;;;;;30.36;71.19;100746.41;5028675;28;69618;-35
2022/07/21 08:36:19;;;;;;;12.63;8.20;;;;;;;30.41;71.35;100746.59;4958707;28;64903;-36
2022/07/21 08:38:55;;;;;;;11.90;8.52;;;;;;;30.45;71.05;100747.81;4960667;28;69502;-35
2022/07/21 08:41:26;;;;;;;11.32;8.38;;;;;;;30.46;71.35;100750.31;4952918;28;67790;-36
2022/07/21 08:43:57;;;;;;;11.93;7.95;;;;;;;30.44;71.78;100744.28;4956329;28;70221;-35
2022/07/21 08:46:31;;;;;;;12.07;8.13;;;;;;;30.13;71.47;100696.41;4959137;28;65934;-37
2022/07/21 08:49:03;;;;;;;17.23;9.18;;;;;;;30.47;71.67;100751.13;4959353;28;69603;-35
2022/07/21 08:51:34;;;;;;;10.07;8.95;;;;;;;30.47;71.40;100745.72;4960157;28;65674;-35
2022/07/21 08:54:05;;;;;;;10.00;9.02;;;;;;;30.47;72.04;100754.66;4960423;28;70176;-35
2022/07/21 08:56:36;;;;;;;12.98;9.32;;;;;;;30.48;72.24;100758.22;4956363;28;65122;-34
2022/07/21 08:59:07;;;;;;;10.57;9.40;;;;;;;30.47;72.26;100759.25;4953610;28;69610;-36
2022/07/21 09:02:12;;;;;;;10.20;9.23;;;;;;;30.47;72.03;100767.38;5024479;28;65280;-35
2022/07/21 09:04:48;;;;;;;9.75;8.80;;;;;;;30.50;72.19;100767.75;4960926;28;70256;-35
2022/07/21 09:07:24;;;;;;;10.40;9.13;;;;;;;30.50;72.34;100761.50;4951582;28;65736;-35
2022/07/21 09:10:00;;;;;;;12.13;9.65;;;;;;;30.20;72.28;100716.13;4960048;28;71828;-34
2022/07/21 09:12:47;;;;;;;11.38;9.30;;;;;;;30.37;72.25;100742.66;4951868;28;65683;-34
2022/07/21 09:15:20;;;;;;;13.25;9.15;;;;;;;30.51;71.81;100763.19;5021169;28;70159;-34
2022/07/21 09:18:16;;;;;;;10.50;8.80;;;;;;;30.44;72.82;100765.91;4958142;28;65669;-34
2022/07/21 09:20:53;;;;;;;10.73;8.93;;;;;;;30.50;72.20;100769.63;4953320;28;70587;-35
2022/07/21 09:23:24;;;;;;;12.13;8.77;;;;;;;30.49;72.02;100770.69;4955099;28;65733;-34
2022/07/21 09:25:58;;;;;;;10.38;8.57;;;;;;;30.16;71.76;100717.59;4950097;28;70031;-34
2022/07/21 09:28:34;;;;;;;10.60;9.30;;;;;;;29.92;71.87;100677.81;4956919;28;66377;-35
2022/07/21 09:31:07;;;;;;;18.67;9.20;;;;;;;30.24;72.36;100736.31;4957513;28;71388;-35
2022/07/21 09:33:42;;;;;;;10.80;8.73;;;;;;;29.92;72.33;100684.09;4956517;28;66024;-35
2022/07/21 09:36:16;;;;;;;10.45;8.32;;;;;;;30.50;71.86;100773.16;4947371;28;70056;-37
2022/07/21 09:38:54;;;;;;;10.60;8.70;;;;;;;30.41;72.49;100757.44;4958392;28;66373;-35
2022/07/21 09:41:27;;;;;;;15.45;8.98;;;;;;;30.40;72.33;100756.59;4960280;28;70134;-33
2022/07/21 09:43:58;;;;;;;9.23;8.13;;;;;;;30.50;71.96;100766.91;4953757;28;65137;-35
2022/07/21 09:46:30;;;;;;;10.65;8.68;;;;;;;30.50;72.08;100766.91;5019780;28;70600;-34
2022/07/21 09:49:02;;;;;;;11.27;8.07;;;;;;;30.49;71.96;100773.41;4955480;28;65761;-34
2022/07/21 09:51:52;;;;;;;8.52;7.47;;;;;;;30.49;71.89;100774.22;4952939;28;69556;-35
2022/07/21 09:54:23;;;;;;;14.30;8.48;;;;;;;30.52;72.27;100774.84;4957480;28;67698;-35
2022/07/21 09:57:15;;;;;;;;;;;;;;;;;;;;;
2022/07/21 09:59:48;;;;;;;9.40;8.00;;;;;;;30.16;72.12;100723.03;5017485;28;65590;-34
2022/07/21 10:02:35;;;;;;;10.32;7.95;;;;;;;30.49;71.60;100778.81;4957169;28;70703;-33
2022/07/21 10:05:14;;;;;;;8.27;7.37;;;;;;;30.50;72.01;100777.75;4957466;28;65272;-34
2022/07/21 10:07:48;;;;;;;12.70;7.82;;;;;;;30.21;72.31;100719.66;4954225;28;69979;-36
2022/07/21 10:10:25;;;;;;;13.30;8.32;;;;;;;30.50;72.57;100770.44;4970142;28;65665;-34
2022/07/21 10:13:20;;;;;;;10.68;7.68;;;;;;;30.54;72.76;100768.16;4951333;28;69991;-35
2022/07/21 10:15:52;;;;;;;10.73;8.52;;;;;;;30.46;72.91;100760.31;4956157;28;65578;-34
2022/07/21 10:18:37;;;;;;;11.52;7.63;;;;;;;30.51;73.14;100768.59;4958036;28;69622;-35
2022/07/21 10:21:23;;;;;;;8.60;7.65;;;;;;;30.54;73.11;100764.63;4956427;28;66235;-34
2022/07/21 10:23:55;;;;;;;7.43;6.82;;;;;;;30.55;72.68;100761.69;5025439;28;69893;-34
2022/07/21 10:26:27;;;;;;;11.02;7.60;;;;;;;30.56;72.90;100760.63;4958376;28;64688;-35
2022/07/21 10:28:57;;;;;;;7.70;7.10;;;;;;;30.56;72.48;100766.03;5026022;28;69696;-34
2022/07/21 10:31:29;;;;;;;10.77;7.30;;;;;;;30.54;72.91;100760.03;4960826;28;65375;-35
2022/07/21 10:34:02;;;;;;;7.97;7.15;;;;;;;30.22;72.80;100705.94;5023070;28;68878;-35
2022/07/21 10:36:34;;;;;;;7.97;7.15;;;;;;;30.57;72.83;100762.28;4961696;28;65346;-34
2022/07/21 10:39:08;;;;;;;6.77;6.23;;;;;;;30.55;72.50;100758.97;5026845;28;69507;-34
2022/07/21 10:41:40;;;;;;;7.18;6.60;;;;;;;30.57;73.15;100758.75;4962089;28;66466;-35
2022/07/21 10:44:32;;;;;;;;;;;;;;;30.23;73.96;100759.03;5014206;28;69695;-35
2022/07/21 10:47:03;;;;;;;7.53;6.93;;;;;;;30.53;72.81;100763.75;4958655;28;65609;-35
2022/07/21 10:49:44;;;;;;;7.72;6.90;;;;;;;30.48;73.19;100758.22;4970373;28;70891;-35
2022/07/21 10:52:39;;;;;;;8.50;7.32;;;;;;;30.46;73.18;100765.72;5023532;28;64999;-36
2022/07/21 10:55:11;;;;;;;10.55;6.50;;;;;;;30.56;72.74;100774.16;5038762;28;70112;-38
2022/07/21 10:57:44;;;;;;;7.38;6.68;;;;;;;30.24;72.93;100725.50;4959451;28;65336;-34
2022/07/21 11:00:29;;;;;;;7.55;6.95;;;;;;;30.18;72.95;100731.75;4957199;28;69417;-34
2022/07/21 11:03:03;;;;;;;8.20;6.53;;;;;;;30.49;72.78;100776.09;4958931;28;66465;-35
2022/07/21 11:05:35;;;;;;;7.00;6.40;;;;;;;30.55;73.47;100786.03;4960582;28;70037;-36
2022/07/21 11:08:12;;;;;;;6.80;6.30;;;;;;;30.59;73.08;100791.84;5010920;28;66751;-35
2022/07/21 11:10:49;;;;;;;7.45;6.75;;;;;;;30.00;72.67;100701.91;5015765;28;69656;-37
2022/07/21 11:13:25;;;;;;;7.55;6.45;;;;;;;30.59;72.76;100808.06;4959876;28;65232;-36
2022/07/21 11:15:58;;;;;;;7.68;6.97;;;;;;;30.57;73.34;100799.38;4967774;28;69378;-35
2022/07/21 11:18:32;;;;;;;6.68;6.20;;;;;;;30.57;73.23;100800.19;4964016;28;65452;-37
2022/07/21 11:21:11;;;;;;;6.97;6.43;;;;;;;30.46;73.23;100784.66;4964121;28;70655;-36
2022/07/21 11:23:50;;;;;;;7.45;6.55;;;;;;;30.27;73.48;100754.81;4978952;28;65962;-35
2022/07/21 11:26:25;;;;;;;7.43;6.72;;;;;;;30.56;72.92;100809.34;4966978;28;69568;-35
2022/07/21 11:29:07;;;;;;;7.22;6.57;;;;;;;30.19;73.39;100763.16;5033713;28;65099;-35
2022/07/21 11:31:47;;;;;;;8.65;7.18;;;;;;;30.44;73.63;100805.69;4975347;28;69213;-34
2022/07/21 11:34:20;;;;;;;7.70;6.95;;;;;;;30.53;74.50;100823.31;4960915;28;65571;-36
2022/07/21 11:37:01;;;;;;;7.93;7.32;;;;;;;30.50;73.69;100834.59;4959583;28;69898;-34
2022/07/21 11:39:52;;;;;;;7.13;6.53;;;;;;;30.54;73.71;100830.41;4964809;28;66537;-36
2022/07/21 11:42:25;;;;;;;7.07;6.50;;;;;;;30.56;74.11;100841.81;4990003;28;69777;-33
2022/07/21 11:44:58;;;;;;;9.30;6.82;;;;;;;30.58;73.58;100849.75;4959673;28;66430;-34
2022/07/21 11:47:29;;;;;;;10.70;9.60;;;;;;;30.37;74.62;100853.63;4948473;28;69025;-35
2022/07/21 11:50:04;;;;;;;11.27;8.45;;;;;;;30.23;75.39;100850.19;4955557;28;66278;-34
2022/07/21 11:52:37;;;;;;;9.88;9.05;;;;;;;29.43;76.34;100738.81;5017651;28;69992;-35